ADDS METAR Data INFO
IDs: Format: Raw Decoded Include TAF

Data at: 1919 UTC 23 Apr 2018

KDYT 231915Z AUTO 22007KT 10SM CLR 19/02 A3015 RMK AO2
KDYT 231855Z AUTO 22012KT 10SM CLR 19/02 A3015 RMK AO2
KDYT 231842Z AUTO 22006KT 10SM CLR 18/03 A3016 RMK AO2
KDYT 231815Z AUTO 23006G09KT 10SM CLR 18/02 A3017 RMK AO2
KDYT 231755Z AUTO 21010G14KT 10SM CLR 17/02 A3018 RMK AO2
KDYT 231735Z AUTO 22010G14KT 10SM CLR 17/02 A3018 RMK AO2
KDYT 231715Z AUTO 22011KT 10SM CLR 17/02 A3019 RMK AO2
KDYT 231655Z AUTO 23012KT 10SM CLR 16/02 A3020 RMK AO2
KDYT 231635Z AUTO 22013KT 10SM CLR 16/03 A3020 RMK AO2
KDYT 231615Z AUTO 23012G17KT 10SM CLR 15/04 A3020 RMK AO2
KDYT 231555Z AUTO 22008KT 10SM CLR 14/04 A3021 RMK AO2
KDYT 231535Z AUTO 23010KT 10SM CLR 14/04 A3021 RMK AO2
KDYT 231515Z AUTO 24009KT 10SM CLR 13/04 A3022 RMK AO2
KDYT 231455Z AUTO 00000KT 10SM CLR 08/02 A3022 RMK AO2
KDYT 231435Z AUTO 00000KT 10SM CLR 04/00 A3023 RMK AO2
KDYT 231415Z AUTO 00000KT 10SM CLR 07/01 A3024 RMK AO2
KDYT 231355Z AUTO 21003KT 10SM CLR 08/02 A3024 RMK AO2
KDYT 231335Z AUTO 00000KT 10SM CLR 03/M01 A3024 RMK AO2
KDYT 231315Z AUTO 00000KT 10SM CLR 02/M01 A3024 RMK AO2
KDYT 231255Z AUTO 18004KT 10SM CLR 04/00 A3024 RMK AO2
KDYT 231235Z AUTO 00000KT 10SM CLR 02/M01 A3024 RMK AO2
KDYT 231215Z AUTO 00000KT 10SM CLR 02/M02 A3025 RMK AO2
KDYT 231155Z AUTO 00000KT 10SM CLR 01/M02 A3024 RMK AO2
KDYT 231135Z AUTO 00000KT 10SM CLR 01/M02 A3024 RMK AO2
KDYT 231115Z AUTO 00000KT 10SM CLR 01/M02 A3024 RMK AO2
KDYT 231055Z AUTO 19003KT 10SM CLR 00/M02 A3023 RMK AO2
KDYT 231035Z AUTO 18003KT 10SM CLR 00/M02 A3023 RMK AO2
KDYT 231015Z AUTO 17003KT 10SM CLR 01/M03 A3023 RMK AO2
KDYT 230955Z AUTO 00000KT 10SM CLR 01/M03 A3023 RMK AO2
KDYT 230935Z AUTO 21003KT 10SM CLR 01/M02 A3023 RMK AO2
KDYT 230915Z AUTO 20003KT 10SM CLR 01/M02 A3023 RMK AO2
KDYT 230855Z AUTO 00000KT 10SM CLR 01/M02 A3023 RMK AO2
KDYT 230835Z AUTO 00000KT 10SM CLR 01/M02 A3024 RMK AO2
KDYT 230815Z AUTO 00000KT 10SM CLR 01/M01 A3023 RMK AO2
KDYT 230755Z AUTO 20003KT 10SM CLR 01/M01 A3023 RMK AO2
KDYT 230735Z AUTO 00000KT 10SM CLR 01/M01 A3024 RMK AO2
KDYT 230715Z AUTO 00000KT 10SM CLR 01/M01 A3024 RMK AO2
KDYT 230655Z AUTO 00000KT 10SM CLR 01/M01 A3024 RMK AO2
KDYT 230635Z AUTO 00000KT 10SM CLR 01/M01 A3024 RMK AO2
KDYT 230615Z AUTO 00000KT 10SM CLR 01/M01 A3024 RMK AO2
KDYT 230555Z AUTO 00000KT 10SM CLR 02/M01 A3024 RMK AO2
KDYT 230535Z AUTO 00000KT 10SM CLR 02/M02 A3024 RMK AO2
KDYT 230515Z AUTO 00000KT 10SM CLR 02/M01 A3024 RMK AO2
KDYT 230455Z AUTO 00000KT 10SM CLR 03/M01 A3024 RMK AO2
KDYT 230435Z AUTO 00000KT 10SM CLR 03/M02 A3024 RMK AO2
KDYT 230415Z AUTO 30003KT 10SM CLR 02/M01 A3024 RMK AO2
KDYT 230355Z AUTO 00000KT 10SM CLR 03/M01 A3024 RMK AO2
KDYT 230335Z AUTO 00000KT 10SM CLR 03/M01 A3025 RMK AO2
KDYT 230315Z AUTO 00000KT 10SM CLR 03/M01 A3025 RMK AO2
KDYT 230255Z AUTO 18003KT 10SM CLR 03/M01 A3026 RMK AO2
KDYT 230235Z AUTO 16003KT 10SM CLR 03/M01 A3025 RMK AO2
KDYT 230215Z AUTO 00000KT 10SM CLR 03/M01 A3025 RMK AO2
KDYT 230155Z AUTO 00000KT 10SM CLR 03/M01 A3025 RMK AO2
KDYT 230135Z AUTO 00000KT 10SM CLR 03/M01 A3025 RMK AO2
KDYT 230115Z AUTO 00000KT 10SM CLR 04/M01 A3025 RMK AO2
KDYT 230055Z AUTO 31003KT 10SM CLR 04/M01 A3024 RMK AO2
KDYT 230035Z AUTO 00000KT 10SM CLR 03/00 A3024 RMK AO2
KDYT 230015Z AUTO 00000KT 10SM CLR 04/00 A3024 RMK AO2
KDYT 222355Z AUTO 00000KT 10SM CLR 04/00 A3025 RMK AO2
KDYT 222335Z AUTO 00000KT 10SM CLR 04/01 A3025 RMK AO2
KDYT 222315Z AUTO 02004KT 10SM CLR 04/01 A3025 RMK AO2
KDYT 222255Z AUTO 36004KT 10SM CLR 04/01 A3026 RMK AO2
KDYT 222235Z AUTO 36007KT 10SM CLR 04/01 A3026 RMK AO2
KDYT 222215Z AUTO 35004KT 10SM CLR 04/01 A3026 RMK AO2
KDYT 222155Z AUTO 00000KT 10SM CLR 04/01 A3026 RMK AO2
KDYT 222135Z AUTO 35005KT 10SM CLR 04/01 A3027 RMK AO2
KDYT 222115Z AUTO 01003KT 10SM CLR 04/02 A3027 RMK AO2
KDYT 222055Z AUTO 00000KT 10SM CLR 04/01 A3027 RMK AO2
KDYT 222035Z AUTO 00000KT 10SM CLR 04/01 A3028 RMK AO2
KDYT 222015Z AUTO 03006KT 10SM CLR 04/01 A3028 RMK AO2
KDYT 221955Z AUTO 36006KT 10SM CLR 04/01 A3029 RMK AO2
KDYT 221935Z AUTO 36004KT 10SM CLR 05/01 A3030 RMK AO2
KDYT 221916Z AUTO 06005KT 10SM CLR 05/01 A3031 RMK AO2
KDYT 221855Z AUTO 10010KT 10SM CLR 06/01 A3031 RMK AO2
KDYT 221835Z AUTO 10009KT 10SM CLR 05/01 A3032 RMK AO2
KDYT 221816Z AUTO 09006KT 10SM CLR 04/00 A3033 RMK AO2
KDYT 221755Z AUTO 10006KT 10SM CLR 04/M01 A3034 RMK AO2
KDYT 221735Z AUTO 09005KT 10SM CLR 05/M02 A3034 RMK AO2
KDYT 221716Z AUTO 08005KT 10SM CLR 05/M02 A3035 RMK AO2
KDYT 221655Z AUTO 05004KT 10SM CLR 05/M02 A3036 RMK AO2
KDYT 221635Z AUTO 04003KT 10SM CLR 04/M02 A3036 RMK AO2
KDYT 221615Z AUTO 04003KT 10SM CLR 04/M02 A3037 RMK AO2
KDYT 221555Z AUTO 00000KT 10SM CLR 04/M02 A3037 RMK AO2
KDYT 221535Z AUTO 00000KT 10SM CLR 04/M02 A3038 RMK AO2
KDYT 221515Z AUTO 00000KT 10SM CLR 04/M02 A3038 RMK AO2
KDYT 221455Z AUTO 00000KT 10SM CLR 04/M02 A3039 RMK AO2
KDYT 221435Z AUTO 00000KT 10SM CLR 04/M02 A3039 RMK AO2
KDYT 221415Z AUTO 00000KT 10SM CLR 04/M01 A3039 RMK AO2
KDYT 221355Z AUTO 00000KT 10SM CLR 03/M01 A3040 RMK AO2
KDYT 221335Z AUTO 18003KT 10SM CLR 03/M01 A3040 RMK AO2
KDYT 221315Z AUTO 00000KT 10SM CLR 02/M02 A3039 RMK AO2
KDYT 221255Z AUTO 00000KT 10SM CLR 01/M03 A3040 RMK AO2
KDYT 221235Z AUTO 00000KT 10SM CLR 00/M03 A3039 RMK AO2
KDYT 221215Z AUTO 00000KT 10SM CLR M01/M03 A3039 RMK AO2
KDYT 221155Z AUTO 00000KT 10SM CLR M01/M03 A3038 RMK AO2
KDYT 221135Z AUTO 00000KT 10SM CLR M01/M03 A3037 RMK AO2
KDYT 221115Z AUTO 00000KT 10SM CLR M01/M03 A3037 RMK AO2
KDYT 221055Z AUTO 00000KT 10SM CLR M02/M03 A3037 RMK AO2
KDYT 221035Z AUTO 00000KT 10SM CLR M02/M03 A3036 RMK AO2
KDYT 221015Z AUTO 00000KT 10SM CLR M02/M03 A3036 RMK AO2
KDYT 220955Z AUTO 00000KT 10SM CLR M01/M03 A3035 RMK AO2
KDYT 220935Z AUTO 00000KT 10SM CLR M01/M02 A3035 RMK AO2
KDYT 220915Z AUTO 34003KT 10SM CLR 00/M02 A3035 RMK AO2
KDYT 220855Z AUTO 00000KT 10SM CLR 01/M02 A3035 RMK AO2
KDYT 220835Z AUTO 35003KT 10SM CLR 00/M02 A3035 RMK AO2
KDYT 220815Z AUTO 01003KT 10SM CLR 01/M02 A3035 RMK AO2
KDYT 220755Z AUTO 00000KT 10SM CLR 01/M02 A3034 RMK AO2
KDYT 220735Z AUTO 00000KT 10SM CLR 01/M02 A3035 RMK AO2